createdAt,value
2023-04-18T00:01:07.700Z,6.03
2023-04-18T00:03:39.156Z,6.30
2023-04-18T00:06:15.573Z,6.95
2023-04-18T00:08:46.830Z,6.65
2023-04-18T00:11:21.052Z,6.75
2023-04-18T00:13:50.661Z,6.70
2023-04-18T00:16:20.527Z,6.40
2023-04-18T00:19:01.821Z,6.05
2023-04-18T00:21:33.647Z,6.15
2023-04-18T00:26:31.901Z,6.55
2023-04-18T00:29:01.236Z,6.50
2023-04-18T00:31:36.786Z,7.38
2023-04-18T00:34:06.079Z,7.20
2023-04-18T00:36:37.255Z,7.47
2023-04-18T00:39:11.801Z,7.53
2023-04-18T00:41:46.264Z,8.48
2023-04-18T00:44:15.613Z,6.88
2023-04-18T00:46:45.155Z,7.28
2023-04-18T00:49:15.117Z,8.00
2023-04-18T00:51:47.393Z,7.03
2023-04-18T00:54:24.875Z,8.10
2023-04-18T00:56:54.457Z,6.78
2023-04-18T00:59:23.969Z,8.98
2023-04-18T01:01:58.471Z,7.70
2023-04-18T01:04:27.907Z,7.57
2023-04-18T01:06:59.204Z,7.28
2023-04-18T01:09:33.161Z,6.82
2023-04-18T01:14:38.542Z,7.45
2023-04-18T01:17:10.689Z,6.95
2023-04-18T01:19:40.049Z,6.60
2023-04-18T01:22:15.198Z,6.70
2023-04-18T01:24:46.609Z,6.80
2023-04-18T01:27:17.208Z,6.20
2023-04-18T01:29:51.745Z,6.97
2023-04-18T01:32:20.991Z,6.90
2023-04-18T01:34:52.821Z,7.05
2023-04-18T01:39:53.531Z,6.57
2023-04-18T01:42:33.728Z,8.07
2023-04-18T01:45:03.631Z,7.63
2023-04-18T01:47:33.312Z,7.70
2023-04-18T01:50:10.441Z,8.10
2023-04-18T01:52:39.746Z,6.93
2023-04-18T01:55:17.238Z,6.72
2023-04-18T01:57:46.880Z,6.32
2023-04-18T02:00:16.886Z,7.30
2023-04-18T02:05:26.764Z,7.07
2023-04-18T02:07:55.905Z,6.85
2023-04-18T02:10:32.204Z,6.60
2023-04-18T02:13:06.759Z,6.60
2023-04-18T02:15:36.474Z,7.05
2023-04-18T02:18:06.541Z,5.90
2023-04-18T02:20:36.010Z,7.05
2023-04-18T02:23:05.776Z,7.00
2023-04-18T02:25:42.141Z,7.03
2023-04-18T02:30:40.666Z,6.50
2023-04-18T02:33:09.989Z,6.47
2023-04-18T02:35:40.306Z,6.95
2023-04-18T02:38:09.526Z,6.65
2023-04-18T02:40:47.121Z,6.45
2023-04-18T02:43:16.454Z,7.07
2023-04-18T02:45:45.617Z,6.88
2023-04-18T02:48:15.195Z,6.97
2023-04-18T02:50:44.475Z,6.70
2023-04-18T02:53:14.018Z,7.00
2023-04-18T02:58:46.882Z,7.15
2023-04-18T03:01:46.178Z,6.72
2023-04-18T03:04:18.274Z,7.47
2023-04-18T03:07:07.929Z,7.22
2023-04-18T03:12:19.721Z,6.90
2023-04-18T03:20:00.541Z,8.10
2023-04-18T03:22:36.190Z,8.23
2023-04-18T03:25:06.645Z,7.72
2023-04-18T03:27:58.309Z,8.20
2023-04-18T03:30:28.723Z,7.63
2023-04-18T03:35:37.822Z,8.88
2023-04-18T03:38:07.860Z,9.98
2023-04-18T03:40:41.885Z,9.30
2023-04-18T03:46:03.267Z,9.15
2023-04-18T03:48:35.477Z,8.00
2023-04-18T03:51:13.784Z,8.82
2023-04-18T03:53:43.701Z,9.77
2023-04-18T03:56:13.333Z,9.60
2023-04-18T03:58:56.018Z,7.43
2023-04-18T04:01:25.669Z,7.50
2023-04-18T04:04:09.050Z,7.93
2023-04-18T04:06:38.596Z,7.35
2023-04-18T04:09:07.901Z,8.02
2023-04-18T04:11:43.091Z,8.02
2023-04-18T04:14:25.895Z,8.15
2023-04-18T04:16:56.068Z,7.07
2023-04-18T04:19:25.953Z,7.85
2023-04-18T04:22:09.280Z,7.55
2023-04-18T04:24:39.297Z,7.10
2023-04-18T04:27:10.789Z,7.78
2023-04-18T04:29:43.440Z,7.68
2023-04-18T04:32:13.204Z,7.57
2023-04-18T04:34:44.553Z,8.27
2023-04-18T04:37:15.013Z,7.18
2023-04-18T04:39:56.676Z,7.60
2023-04-18T04:42:35.612Z,8.00
2023-04-18T04:45:19.728Z,8.30
2023-04-18T04:47:49.534Z,8.52
2023-04-18T04:50:20.645Z,8.80
2023-04-18T04:52:50.313Z,8.85
2023-04-18T04:55:20.675Z,8.68
2023-04-18T04:57:55.851Z,9.07
2023-04-18T05:00:47.596Z,8.75
2023-04-18T05:03:17.304Z,8.75
2023-04-18T05:05:47.096Z,9.85
2023-04-18T05:08:16.401Z,9.27
2023-04-18T05:10:45.714Z,9.50
2023-04-18T05:13:15.096Z,8.82
2023-04-18T05:15:44.442Z,9.25
2023-04-18T05:23:55.494Z,10.02
2023-04-18T05:26:25.136Z,10.80
2023-04-18T05:29:19.453Z,10.25
2023-04-18T05:31:49.251Z,11.60
2023-04-18T05:36:55.626Z,11.88
2023-04-18T05:39:25.117Z,12.15
2023-04-18T05:41:54.479Z,11.82
2023-04-18T05:44:38.769Z,12.38
2023-04-18T05:47:08.195Z,13.68
2023-04-18T05:49:41.297Z,11.40
2023-04-18T05:52:11.187Z,12.90
2023-04-18T05:54:40.868Z,11.90
2023-04-18T05:57:10.181Z,12.85
2023-04-18T05:59:39.874Z,12.10
2023-04-18T06:02:15.393Z,11.85
2023-04-18T06:04:48.330Z,11.38
2023-04-18T06:07:18.428Z,12.45
2023-04-18T06:09:49.483Z,12.13
2023-04-18T06:12:18.877Z,13.27
2023-04-18T06:14:48.396Z,12.82
2023-04-18T06:17:17.774Z,12.93
2023-04-18T06:19:49.481Z,13.10
2023-04-18T06:24:55.312Z,11.18
2023-04-18T06:27:31.187Z,11.55
2023-04-18T06:30:01.973Z,10.80
2023-04-18T06:35:24.127Z,12.43
2023-04-18T06:37:54.801Z,12.02
2023-04-18T06:40:24.454Z,12.20
2023-04-18T06:42:53.890Z,12.52
2023-04-18T06:45:23.585Z,11.18
2023-04-18T06:47:59.432Z,11.13
2023-04-18T06:50:31.474Z,11.02
2023-04-18T06:53:00.831Z,11.45
2023-04-18T06:55:37.707Z,10.60
2023-04-18T06:58:08.201Z,10.07
2023-04-18T07:00:42.767Z,9.68
2023-04-18T07:03:12.915Z,9.43
2023-04-18T07:05:44.785Z,8.70
2023-04-18T07:08:14.450Z,8.40
2023-04-18T07:10:44.188Z,7.10
2023-04-18T07:13:13.449Z,7.30
2023-04-18T07:15:47.858Z,6.82
2023-04-18T07:18:36.543Z,6.38
2023-04-18T07:21:10.620Z,6.30
2023-04-18T07:23:40.482Z,6.90
2023-04-18T07:26:11.110Z,6.55
2023-04-18T07:28:40.480Z,6.97
2023-04-18T07:31:12.250Z,6.53
2023-04-18T07:36:14.130Z,6.68
2023-04-18T07:38:48.720Z,7.40
2023-04-18T07:41:18.049Z,7.55
2023-04-18T07:43:47.409Z,7.60
2023-04-18T07:46:16.809Z,7.65
2023-04-18T07:48:46.300Z,7.47
2023-04-18T07:51:18.216Z,6.63
2023-04-18T07:53:47.850Z,7.22
2023-04-18T07:56:17.149Z,6.80
2023-04-18T08:01:23.952Z,6.85
2023-04-18T08:06:32.185Z,8.70
2023-04-18T08:09:04.061Z,7.57
2023-04-18T08:11:38.540Z,6.50
2023-04-18T08:14:07.846Z,6.90
2023-04-18T08:16:37.117Z,7.57
2023-04-18T08:19:21.795Z,7.10
2023-04-18T08:21:54.080Z,6.95
2023-04-18T08:24:30.413Z,7.07
2023-04-18T08:27:00.033Z,7.22
2023-04-18T08:29:29.821Z,7.95
2023-04-18T08:31:59.435Z,7.18
2023-04-18T08:34:29.007Z,7.05
2023-04-18T08:37:05.540Z,7.22
2023-04-18T08:39:35.090Z,7.20
2023-04-18T08:42:05.592Z,7.75
2023-04-18T08:44:40.829Z,8.10
2023-04-18T08:47:11.991Z,7.50
2023-04-18T08:49:47.467Z,7.95
2023-04-18T08:52:19.094Z,7.85
2023-04-18T08:54:49.371Z,7.85
2023-04-18T08:57:26.596Z,7.65
2023-04-18T08:59:56.659Z,8.15
2023-04-18T09:02:38.608Z,8.25
2023-04-18T09:05:14.607Z,7.75
2023-04-18T09:07:46.428Z,7.95
2023-04-18T09:10:27.185Z,8.30
2023-04-18T09:13:02.971Z,9.07
2023-04-18T09:15:34.210Z,9.52
2023-04-18T09:18:04.297Z,8.63
2023-04-18T09:20:40.748Z,9.07
2023-04-18T09:23:15.158Z,7.80
2023-04-18T09:25:47.647Z,9.35
2023-04-18T09:28:26.633Z,8.48
2023-04-18T09:30:58.496Z,8.45
2023-04-18T09:33:37.732Z,8.60
2023-04-18T09:36:20.236Z,8.45
2023-04-18T09:39:02.151Z,8.45
2023-04-18T09:41:32.386Z,8.48
2023-04-18T09:46:47.617Z,8.30
2023-04-18T09:49:18.096Z,8.13
2023-04-18T09:51:53.306Z,7.40
2023-04-18T09:54:34.808Z,8.75
2023-04-18T09:57:13.403Z,7.75
2023-04-18T09:59:47.429Z,8.50
2023-04-18T10:02:26.878Z,8.80
2023-04-18T10:04:57.887Z,8.68
2023-04-18T10:07:34.383Z,8.85
2023-04-18T10:10:06.054Z,8.60
2023-04-18T10:15:17.925Z,8.73
2023-04-18T10:18:03.391Z,8.03
2023-04-18T10:20:35.511Z,9.30
2023-04-18T10:23:43.253Z,8.40
2023-04-18T10:26:14.568Z,8.40
2023-04-18T10:28:56.270Z,8.80
2023-04-18T10:31:31.599Z,7.80
2023-04-18T10:34:05.721Z,8.35
2023-04-18T10:36:35.731Z,8.07
2023-04-18T10:39:21.170Z,8.43
2023-04-18T10:41:53.507Z,8.60
2023-04-18T10:44:29.248Z,8.50
2023-04-18T10:47:27.893Z,8.82
2023-04-18T10:50:07.850Z,8.57
2023-04-18T10:52:37.225Z,7.82
2023-04-18T10:55:25.782Z,7.90
2023-04-18T10:58:03.428Z,7.97
2023-04-18T11:00:33.787Z,6.32
2023-04-18T11:03:03.281Z,8.02
2023-04-18T11:05:32.897Z,6.90
2023-04-18T11:08:02.076Z,7.82
2023-04-18T11:10:31.383Z,8.43
2023-04-18T11:13:05.718Z,8.07
2023-04-18T11:15:39.611Z,8.43
2023-04-18T11:18:11.347Z,7.93
2023-04-18T11:26:02.954Z,7.60
2023-04-18T11:28:34.313Z,7.60
2023-04-18T11:31:08.911Z,8.13
2023-04-18T11:33:38.399Z,9.38
2023-04-18T11:36:22.210Z,8.98
2023-04-18T11:38:51.939Z,8.10
2023-04-18T11:41:36.129Z,8.48
2023-04-18T11:44:08.257Z,9.15
2023-04-18T11:46:40.864Z,7.25
2023-04-18T11:49:10.352Z,8.50
2023-04-18T11:51:43.312Z,6.07
2023-04-18T11:54:40.877Z,8.77
2023-04-18T11:57:23.260Z,6.50
2023-04-18T11:59:58.872Z,7.95
2023-04-18T12:02:48.906Z,8.85
2023-04-18T12:08:11.591Z,6.60
2023-04-18T12:13:33.193Z,8.63
2023-04-18T12:16:18.998Z,7.45
2023-04-18T12:19:14.054Z,6.00
2023-04-18T12:24:35.838Z,6.63
2023-04-18T12:27:05.243Z,6.85
2023-04-18T12:29:41.597Z,8.68
2023-04-18T12:32:16.855Z,8.13
2023-04-18T12:34:51.437Z,8.30
2023-04-18T12:37:25.196Z,8.73
2023-04-18T12:39:54.705Z,7.88
2023-04-18T12:42:24.190Z,7.95
2023-04-18T12:52:06.013Z,6.28
2023-04-18T12:54:37.992Z,7.35
2023-04-18T12:59:36.341Z,7.43
2023-04-18T13:02:13.737Z,8.13
2023-04-18T13:05:10.073Z,7.65
2023-04-18T13:10:30.714Z,6.35
2023-04-18T13:13:06.601Z,7.90
2023-04-18T13:15:54.353Z,7.78
2023-04-18T13:18:42.174Z,7.68
2023-04-18T13:21:11.527Z,7.60
2023-04-18T13:23:43.422Z,8.63
2023-04-18T13:26:12.897Z,10.15
2023-04-18T13:28:55.223Z,7.53
2023-04-18T13:31:24.729Z,7.90
2023-04-18T13:34:12.777Z,6.93
2023-04-18T13:36:42.230Z,5.18
2023-04-18T13:39:19.833Z,6.15
2023-04-18T13:42:04.743Z,5.85
2023-04-18T13:47:22.392Z,7.40
2023-04-18T13:49:51.840Z,6.70
2023-04-18T13:52:26.280Z,5.70
2023-04-18T13:55:10.671Z,7.40
2023-04-18T13:57:40.855Z,5.55
2023-04-18T14:00:13.650Z,6.15
2023-04-18T14:02:48.336Z,6.15
2023-04-18T14:05:17.803Z,6.82
2023-04-18T14:08:05.550Z,6.05
2023-04-18T14:10:37.055Z,6.00
2023-04-18T14:13:11.376Z,6.10
2023-04-18T14:15:40.759Z,4.22
2023-04-18T14:18:17.508Z,5.50
2023-04-18T14:20:48.178Z,6.30
2023-04-18T14:23:28.132Z,6.38
2023-04-18T14:26:04.653Z,6.68
2023-04-18T14:28:35.478Z,6.25
2023-04-18T14:31:06.224Z,5.57
2023-04-18T14:33:40.787Z,6.60
2023-04-18T14:36:11.112Z,6.35
2023-04-18T14:38:53.499Z,5.25
2023-04-18T14:41:25.314Z,6.95
2023-04-18T14:46:23.619Z,6.85
2023-04-18T14:48:53.084Z,5.82
2023-04-18T14:51:25.813Z,6.82
2023-04-18T14:54:14.026Z,5.95
2023-04-18T14:56:45.398Z,7.00
2023-04-18T14:59:16.708Z,6.65
2023-04-18T15:01:46.501Z,6.20
2023-04-18T15:04:16.267Z,6.28
2023-04-18T15:06:59.054Z,5.55
2023-04-18T15:09:28.621Z,6.57
2023-04-18T15:12:00.198Z,7.50
2023-04-18T15:14:31.158Z,7.43
2023-04-18T15:17:02.645Z,6.30
2023-04-18T15:19:34.134Z,6.07
2023-04-18T15:22:10.515Z,6.35
2023-04-18T15:24:39.922Z,5.57
2023-04-18T15:27:12.026Z,5.43
2023-04-18T15:29:41.289Z,6.45
2023-04-18T15:32:11.134Z,6.18
2023-04-18T15:34:41.045Z,5.72
2023-04-18T15:37:10.447Z,5.57
2023-04-18T15:39:55.113Z,5.40
2023-04-18T15:42:26.443Z,5.53
2023-04-18T15:45:01.032Z,6.10
2023-04-18T15:50:16.638Z,6.57
2023-04-18T15:52:46.039Z,6.30
2023-04-18T15:55:15.439Z,6.15
2023-04-18T15:57:46.712Z,5.97
2023-04-18T16:00:22.975Z,6.13
2023-04-18T16:02:52.715Z,5.88
2023-04-18T16:05:22.408Z,6.45
2023-04-18T16:07:57.814Z,6.18
2023-04-18T16:10:27.153Z,5.05
2023-04-18T16:13:04.205Z,6.32
2023-04-18T16:15:35.177Z,5.32
2023-04-18T16:18:04.593Z,6.10
2023-04-18T16:20:33.802Z,5.03
2023-04-18T16:23:09.216Z,5.60
2023-04-18T16:25:38.826Z,5.25
2023-04-18T16:28:10.279Z,5.38
2023-04-18T16:30:43.367Z,5.78
2023-04-18T16:33:20.493Z,5.97
2023-04-18T16:35:50.199Z,6.70
2023-04-18T16:38:23.108Z,5.40
2023-04-18T16:40:52.441Z,6.13
2023-04-18T16:43:42.212Z,6.50
2023-04-18T16:46:13.368Z,6.05
2023-04-18T16:51:19.532Z,5.60
2023-04-18T16:53:48.884Z,7.32
2023-04-18T16:56:18.295Z,7.28
2023-04-18T16:58:49.563Z,7.25
2023-04-18T17:01:24.200Z,6.18
2023-04-18T17:03:53.869Z,6.30
2023-04-18T17:06:24.940Z,6.38
2023-04-18T17:08:54.525Z,5.70
2023-04-18T17:11:43.662Z,6.50
2023-04-18T17:14:16.273Z,5.93
2023-04-18T17:16:46.032Z,5.90
2023-04-18T17:19:15.602Z,5.95
2023-04-18T17:21:46.079Z,6.93
2023-04-18T17:24:15.622Z,6.95
2023-04-18T17:26:45.200Z,7.07
2023-04-18T17:29:18.180Z,6.43
2023-04-18T17:31:47.464Z,7.15
2023-04-18T17:34:16.807Z,7.57
2023-04-18T17:36:46.388Z,6.88
2023-04-18T17:39:16.716Z,7.18
2023-04-18T17:41:47.672Z,7.20
2023-04-18T17:44:18.995Z,6.83
2023-04-18T17:46:50.670Z,7.85
2023-04-18T17:49:20.075Z,6.63
2023-04-18T17:51:54.371Z,7.25
2023-04-18T17:54:25.175Z,6.30
2023-04-18T17:56:54.527Z,8.90
2023-04-18T17:59:26.046Z,7.75
2023-04-18T18:02:07.295Z,6.05
2023-04-18T18:04:36.994Z,5.55
2023-04-18T18:07:07.809Z,5.85
2023-04-18T18:09:42.210Z,5.85
2023-04-18T18:12:31.989Z,6.57
2023-04-18T18:15:04.298Z,6.03
2023-04-18T18:17:35.391Z,5.82
2023-04-18T18:20:05.298Z,6.30
2023-04-18T18:22:35.280Z,6.30
2023-04-18T18:25:05.670Z,6.22
2023-04-18T18:27:54.143Z,6.45
2023-04-18T18:30:25.789Z,6.20
2023-04-18T18:33:00.408Z,6.13
2023-04-18T18:35:29.694Z,5.97
2023-04-18T18:37:59.289Z,6.70
2023-04-18T18:40:41.530Z,6.32
2023-04-18T18:43:11.020Z,6.63
2023-04-18T18:45:42.629Z,7.28
2023-04-18T18:50:41.566Z,7.18
2023-04-18T18:53:16.597Z,7.28
2023-04-18T18:55:46.030Z,6.93
2023-04-18T18:58:15.346Z,6.60
2023-04-18T19:01:01.409Z,7.10
2023-04-18T19:03:31.077Z,6.90
2023-04-18T19:06:03.506Z,7.50
2023-04-18T19:08:33.162Z,6.63
2023-04-18T19:11:02.419Z,7.18
2023-04-18T19:13:31.879Z,7.95
2023-04-18T19:16:03.066Z,7.47
2023-04-18T19:18:32.843Z,7.72
2023-04-18T19:21:02.146Z,8.43
2023-04-18T19:23:32.823Z,8.07
2023-04-18T19:26:02.780Z,9.07
2023-04-18T19:28:38.184Z,8.55
2023-04-18T19:31:09.990Z,8.43
2023-04-18T19:33:39.943Z,9.00
2023-04-18T19:36:09.373Z,8.73
2023-04-18T19:38:57.007Z,8.48
2023-04-18T19:41:27.494Z,8.18
2023-04-18T19:43:56.852Z,8.55
2023-04-18T19:49:18.202Z,7.68
2023-04-18T19:51:48.548Z,7.25
2023-04-18T19:54:30.876Z,8.35
2023-04-18T19:57:00.778Z,7.70
2023-04-18T19:59:30.050Z,7.03
2023-04-18T20:02:06.865Z,7.03
2023-04-18T20:04:37.081Z,7.32
2023-04-18T20:07:06.645Z,6.80
2023-04-18T20:09:42.019Z,6.90
2023-04-18T20:12:11.577Z,7.13
2023-04-18T20:15:25.826Z,7.60
2023-04-18T20:18:10.128Z,7.95
2023-04-18T20:21:00.006Z,6.80
2023-04-18T20:23:29.507Z,7.07
2023-04-18T20:26:13.810Z,7.53
2023-04-18T20:28:43.262Z,7.65
2023-04-18T20:31:22.921Z,7.10
2023-04-18T20:33:54.445Z,6.82
2023-04-18T20:36:58.088Z,6.95
2023-04-18T20:39:27.665Z,7.00
2023-04-18T20:42:15.833Z,6.57
2023-04-18T20:44:46.372Z,6.55
2023-04-18T20:47:16.125Z,6.18
2023-04-18T20:49:52.464Z,6.43
2023-04-18T20:52:26.952Z,6.47
2023-04-18T20:54:56.351Z,6.22
2023-04-18T20:57:25.656Z,7.38
2023-04-18T21:00:15.819Z,6.47
2023-04-18T21:02:46.498Z,6.25
2023-04-18T21:05:18.200Z,6.00
2023-04-18T21:07:48.974Z,5.95
2023-04-18T21:10:25.303Z,6.72
2023-04-18T21:12:55.125Z,7.28
2023-04-18T21:15:30.163Z,7.72
2023-04-18T21:17:59.873Z,8.05
2023-04-18T21:20:31.497Z,8.50
2023-04-18T21:25:54.364Z,7.53
2023-04-18T21:28:23.881Z,7.97
2023-04-18T21:30:53.568Z,7.47
2023-04-18T21:33:24.287Z,7.10
2023-04-18T21:36:01.445Z,6.97
2023-04-18T21:38:44.388Z,7.28
2023-04-18T21:41:16.631Z,7.60
2023-04-18T21:46:44.198Z,7.00
2023-04-18T21:49:19.947Z,6.45
2023-04-18T21:51:51.303Z,6.30
2023-04-18T21:54:20.796Z,6.50
2023-04-18T21:57:08.608Z,6.65
2023-04-18T21:59:44.692Z,6.53
2023-04-18T22:02:25.597Z,6.75
2023-04-18T22:04:55.319Z,6.55
2023-04-18T22:07:26.701Z,6.22
2023-04-18T22:10:05.523Z,6.30
2023-04-18T22:12:36.317Z,6.10
2023-04-18T22:15:06.165Z,6.85
2023-04-18T22:17:37.587Z,6.35
2023-04-18T22:20:27.837Z,6.13
2023-04-18T22:22:59.122Z,6.53
2023-04-18T22:25:28.572Z,6.38
2023-04-18T22:28:03.480Z,6.78
2023-04-18T22:30:33.026Z,6.28
2023-04-18T22:33:02.292Z,6.50
2023-04-18T22:35:41.934Z,6.30
2023-04-18T22:38:13.508Z,6.63
2023-04-18T22:43:24.634Z,6.93
2023-04-18T22:45:54.296Z,7.07
2023-04-18T22:48:28.623Z,6.90
2023-04-18T22:50:57.903Z,5.68
2023-04-18T22:53:29.097Z,5.30
2023-04-18T22:55:58.829Z,5.28
2023-04-18T22:58:28.102Z,5.07
2023-04-18T23:01:02.320Z,5.70
2023-04-18T23:03:34.312Z,5.20
2023-04-18T23:06:04.320Z,5.57
2023-04-18T23:08:35.466Z,5.50
2023-04-18T23:11:09.749Z,5.00
2023-04-18T23:13:38.948Z,5.57
2023-04-18T23:16:09.549Z,5.72
2023-04-18T23:18:44.153Z,5.20
2023-04-18T23:21:14.028Z,5.22
2023-04-18T23:23:46.225Z,4.93
2023-04-18T23:26:16.109Z,5.55
2023-04-18T23:28:45.580Z,5.22
2023-04-18T23:31:21.677Z,5.40
2023-04-18T23:33:52.245Z,5.55
2023-04-18T23:36:21.583Z,5.90
2023-04-18T23:38:57.867Z,5.38
2023-04-18T23:41:45.174Z,5.55
2023-04-18T23:44:14.625Z,5.35
2023-04-18T23:46:44.006Z,6.13
2023-04-18T23:49:18.517Z,5.93
2023-04-18T23:51:47.888Z,5.57
2023-04-18T23:54:24.167Z,5.13
2023-04-18T23:56:53.522Z,5.57
2023-04-18T23:59:22.778Z,5.45
